Marysville, Ohio
Current Conditions -  °F | °C
As of 11:54 PM on Saturday 20 Dec 2014 (Local Time) from KMRT Reporting Station
Broken Clouds Broken Clouds  
Wind Chill: -5°   Ceiling: 3100
Heat Index: -5°   Visibility: 3mi
Dew Point: -6°   Wind: 0mph
Humidity: 91%   Direction: NA
Pressure: 30.28"   Gusts: NA
Location:  40.24°N, 83.37°W
Report Text: KMRT 210454Z AUTO 00000KT 3SM BKN031 M05/M06 A3028 RMK AO2 T10511064
Loading
Personal Weather Stations






























Interactive Weather Map New forecast layout! Learn more

10-Day Weather Forecast

Advertisements
Track Severe Weather on mobile